Time;durP1;ratioP1;P1;durP2;ratioP2;P2;SDS_P1;SDS_P2;PMS_P1;PMS_P2;Temp;Humidity;BMP_temperature;BMP_pressure;BME280_temperature;BME280_humidity;BME280_pressure;Samples;Min_cycle;Max_cycle;Signal;HPM_P1;HPM_P2
2023/03/28 00:01:53;;;;;;;8.00;2.00;;;6.10;52.40;;;;;;4998217;28;20056;-49
2023/03/28 00:04:21;;;;;;;9.60;1.88;;;6.10;52.40;;;;;;5002636;28;20486;-49
2023/03/28 00:06:49;;;;;;;12.13;2.60;;;6.10;52.90;;;;;;4994291;28;20396;-51
2023/03/28 00:09:17;;;;;;;10.95;2.00;;;6.10;52.40;;;;;;4998470;28;20499;-50
2023/03/28 00:11:44;;;;;;;8.00;2.00;;;6.10;52.40;;;;;;5000453;28;20049;-47
2023/03/28 00:14:13;;;;;;;9.20;2.15;;;6.10;52.50;;;;;;5001999;28;20486;-50
2023/03/28 00:16:44;;;;;;;8.20;1.92;;;6.10;52.50;;;;;;4994037;28;20100;-48
2023/03/28 00:19:15;;;;;;;12.35;2.28;;;6.00;52.50;;;;;;5001085;28;20057;-49
2023/03/28 00:21:46;;;;;;;11.50;2.22;;;6.00;52.50;;;;;;5001422;28;20064;-47
2023/03/28 00:24:15;;;;;;;13.48;2.00;;;6.00;52.50;;;;;;4999789;28;20053;-51
2023/03/28 00:26:44;;;;;;;9.32;2.15;;;6.00;53.00;;;;;;4995812;28;20508;-51
2023/03/28 00:29:19;;;;;;;9.13;1.83;;;6.00;52.60;;;;;;5001412;28;20057;-47
2023/03/28 00:31:48;;;;;;;13.40;2.50;;;6.00;52.60;;;;;;4999263;28;20053;-52
2023/03/28 00:34:17;;;;;;;13.70;2.83;;;5.90;52.60;;;;;;5000384;28;20053;-49
2023/03/28 00:36:44;;;;;;;16.15;2.35;;;5.90;52.60;;;;;;4996259;28;20050;-52
2023/03/28 00:39:12;;;;;;;9.40;2.20;;;5.90;52.60;;;;;;4998071;28;20058;-52
2023/03/28 00:41:42;;;;;;;10.32;2.15;;;5.90;52.60;;;;;;4998772;28;20053;-51
2023/03/28 00:44:47;;;;;;;7.20;2.03;;;5.90;52.60;;;;;;5001320;28;20057;-46
2023/03/28 00:47:35;;;;;;;13.15;1.70;;;5.90;52.70;;;;;;4997921;28;20065;-48
2023/03/28 00:50:09;;;;;;;9.43;2.47;;;5.90;52.60;;;;;;4997889;28;20080;-51
2023/03/28 00:52:42;;;;;;;8.73;2.00;;;5.90;52.60;;;;;;5000521;28;20057;-51
2023/03/28 00:55:14;;;;;;;9.75;2.38;;;5.80;52.60;;;;;;4998743;28;20069;-48
2023/03/28 00:57:43;;;;;;;9.68;3.22;;;5.80;52.60;;;;;;4997182;28;20057;-48
2023/03/28 01:00:17;;;;;;;9.48;2.40;;;5.80;52.70;;;;;;4999093;28;20379;-46
2023/03/28 01:02:49;;;;;;;;;;;5.80;52.70;;;;;;5009881;23;21202;-86
2023/03/28 01:05:22;;;;;;;10.88;2.35;;;5.80;52.80;;;;;;4963423;28;19922;-85
2023/03/28 01:07:52;;;;;;;16.92;2.90;;;5.80;52.60;;;;;;4963757;28;20054;-87
2023/03/28 01:10:21;;;;;;;9.35;2.03;;;5.80;52.70;;;;;;4963777;28;20498;-86
2023/03/28 01:12:50;;;;;;;10.73;2.15;;;5.80;52.70;;;;;;4961498;28;20066;-85
2023/03/28 01:15:18;;;;;;;14.65;2.03;;;5.80;52.80;;;;;;4962935;28;20418;-85
2023/03/28 01:17:47;;;;;;;16.70;2.22;;;5.80;52.80;;;;;;4963211;28;20051;-85
2023/03/28 01:20:31;;;;;;;11.23;2.00;;;5.70;52.80;;;;;;4960888;28;20667;-85
2023/03/28 01:23:13;;;;;;;;;;;5.70;52.90;;;;;;4963451;28;20054;-84
2023/03/28 01:26:06;;;;;;;8.45;1.92;;;5.80;53.40;;;;;;4961853;28;20317;-85
2023/03/28 04:43:21;;;;;;;5.72;1.45;;;5.20;53.50;;;;;;4921788;28;19949;-85
2023/03/28 04:45:49;;;;;;;8.50;1.55;;;5.20;53.40;;;;;;4945033;28;20066;-86
2023/03/28 04:48:16;;;;;;;8.07;1.98;;;5.20;53.40;;;;;;4944085;28;20062;-86
2023/03/28 04:50:43;;;;;;;12.55;1.80;;;5.20;53.50;;;;;;4946498;28;20054;-85
2023/03/28 04:53:11;;;;;;;6.55;1.73;;;5.20;53.50;;;;;;4944407;28;20051;-85
2023/03/28 04:55:38;;;;;;;7.53;1.88;;;5.20;53.60;;;;;;4945211;28;20059;-85
2023/03/28 04:58:06;;;;;;;9.63;2.28;;;5.20;53.60;;;;;;4948431;28;20051;-86
2023/03/28 05:00:35;;;;;;;11.65;2.95;;;5.20;53.60;;;;;;4945294;28;20498;-88
2023/03/28 05:03:03;;;;;;;8.45;2.10;;;5.20;53.60;;;;;;4944312;28;20499;-86
2023/03/28 05:05:31;;;;;;;12.90;2.63;;;5.20;53.50;;;;;;4942522;28;20071;-85
2023/03/28 05:07:58;;;;;;;11.05;2.22;;;5.20;53.50;;;;;;4951439;28;20415;-85
2023/03/28 05:10:26;;;;;;;11.10;2.30;;;5.20;53.50;;;;;;4951862;28;20055;-85
2023/03/28 05:12:53;;;;;;;12.45;2.70;;;5.20;53.50;;;;;;4943747;28;20495;-84
2023/03/28 05:15:20;;;;;;;4.95;1.83;;;5.20;53.50;;;;;;4943468;28;20082;-87
2023/03/28 05:17:52;;;;;;;12.02;2.15;;;5.20;53.50;;;;;;4945522;28;20903;-84
2023/03/28 05:20:20;;;;;;;8.55;1.70;;;5.20;53.50;;;;;;4944283;28;20051;-86
2023/03/28 05:22:48;;;;;;;6.15;1.60;;;5.20;53.40;;;;;;4943491;28;20059;-83
2023/03/28 05:25:15;;;;;;;7.80;2.00;;;5.30;53.50;;;;;;4947536;28;20464;-84
2023/03/28 05:27:43;;;;;;;6.03;1.98;;;5.30;53.50;;;;;;4943069;28;20414;-84
2023/03/28 05:30:11;;;;;;;12.27;2.75;;;5.30;53.40;;;;;;4944800;28;20408;-83
2023/03/28 05:32:39;;;;;;;9.45;2.20;;;5.30;53.40;;;;;;4944295;28;20063;-84
2023/03/28 05:35:11;;;;;;;11.32;2.22;;;5.30;53.30;;;;;;4945635;28;20154;-84
2023/03/28 05:37:38;;;;;;;11.63;2.70;;;5.30;53.20;;;;;;4945349;28;20059;-85
2023/03/28 05:40:09;;;;;;;8.23;1.90;;;5.30;53.20;;;;;;4945027;28;20062;-85
2023/03/28 05:42:37;;;;;;;8.45;1.95;;;5.30;53.20;;;;;;4944123;28;20050;-85
2023/03/28 05:45:06;;;;;;;11.55;2.30;;;5.30;53.20;;;;;;4943911;28;20514;-84
2023/03/28 05:47:34;;;;;;;8.65;1.75;;;5.30;53.20;;;;;;4945255;28;20054;-87
2023/03/28 05:50:02;;;;;;;8.93;2.38;;;5.30;53.30;;;;;;4943972;28;20487;-85
2023/03/28 05:52:31;;;;;;;9.02;3.13;;;5.30;53.30;;;;;;4944562;28;20059;-85
2023/03/28 05:54:58;;;;;;;15.75;3.00;;;5.30;53.40;;;;;;4944501;28;20088;-85
2023/03/28 05:57:25;;;;;;;10.00;2.33;;;5.20;53.30;;;;;;4942921;28;20059;-85
2023/03/28 05:59:53;;;;;;;11.90;2.38;;;5.30;53.40;;;;;;4945080;28;20055;-85
2023/03/28 06:02:23;;;;;;;8.73;1.67;;;5.30;53.50;;;;;;4944257;28;20062;-85
2023/03/28 06:04:52;;;;;;;9.18;1.90;;;5.30;53.50;;;;;;4944729;28;20055;-86
2023/03/28 06:07:20;;;;;;;9.85;2.30;;;5.30;53.50;;;;;;4946223;28;20070;-89
2023/03/28 06:09:49;;;;;;;7.43;2.08;;;5.30;53.50;;;;;;4944630;28;20055;-89
2023/03/28 06:12:17;;;;;;;15.00;2.72;;;5.30;53.60;;;;;;4944095;28;20054;-88
2023/03/28 06:14:44;;;;;;;8.05;2.17;;;5.30;53.60;;;;;;4946063;28;20058;-90
2023/03/28 06:17:11;;;;;;;8.15;2.08;;;5.30;53.60;;;;;;4945884;28;20066;-89
2023/03/28 06:19:39;;;;;;;17.65;3.00;;;5.40;53.70;;;;;;4944162;28;20052;-89
2023/03/28 06:22:06;;;;;;;14.70;2.45;;;5.40;53.70;;;;;;4941825;28;20055;-90
2023/03/28 06:24:34;;;;;;;10.50;2.80;;;5.40;53.70;;;;;;4953210;28;20047;-90
2023/03/28 06:27:03;;;;;;;11.85;3.00;;;5.40;53.70;;;;;;4947705;28;20063;-91
2023/03/28 06:29:30;;;;;;;9.75;1.83;;;5.40;53.70;;;;;;4955333;28;20062;-90
2023/03/28 06:31:57;;;;;;;10.38;2.70;;;5.40;53.70;;;;;;4949741;28;20047;-90
2023/03/28 06:34:25;;;;;;;13.25;3.00;;;5.50;53.80;;;;;;4949273;28;20059;-90
2023/03/28 06:36:52;;;;;;;14.52;3.05;;;5.50;53.90;;;;;;4947711;28;20059;-89
2023/03/28 06:39:19;;;;;;;8.85;2.47;;;5.50;54.00;;;;;;4955608;28;20066;-88
2023/03/28 06:41:47;;;;;;;9.02;1.80;;;5.50;54.00;;;;;;4946092;28;20074;-90
2023/03/28 06:47:02;;;;;;;9.50;2.08;;;5.60;54.10;;;;;;4949177;28;20055;-90
2023/03/28 06:49:30;;;;;;;8.35;1.80;;;5.60;54.10;;;;;;4949036;28;20075;-90
2023/03/28 06:51:59;;;;;;;9.32;2.00;;;5.70;54.10;;;;;;4949810;28;20762;-90
2023/03/28 06:54:26;;;;;;;9.05;2.15;;;5.70;54.20;;;;;;4947773;28;20125;-89
2023/03/28 06:56:54;;;;;;;16.00;3.08;;;5.80;54.20;;;;;;4946196;28;20059;-90
2023/03/28 06:59:23;;;;;;;8.82;2.28;;;5.80;54.30;;;;;;4948739;28;20058;-86
2023/03/28 07:01:50;;;;;;;11.93;2.05;;;5.90;54.30;;;;;;4947728;28;20058;-90
2023/03/28 07:04:18;;;;;;;14.63;3.13;;;5.90;54.20;;;;;;4947529;28;20047;-89
2023/03/28 07:06:46;;;;;;;6.55;2.13;;;6.00;54.20;;;;;;4947323;28;20062;-89
2023/03/28 07:09:13;;;;;;;12.95;3.40;;;6.00;54.10;;;;;;4947148;28;20075;-89
2023/03/28 07:11:41;;;;;;;10.75;2.97;;;6.10;54.10;;;;;;4946504;28;20499;-89
2023/03/28 07:14:08;;;;;;;12.80;2.50;;;6.10;54.00;;;;;;4947808;28;20058;-88
2023/03/28 07:16:37;;;;;;;15.18;3.10;;;6.20;54.00;;;;;;4948993;28;20054;-89
2023/03/28 07:19:05;;;;;;;9.30;2.38;;;6.20;53.90;;;;;;4945265;28;20529;-87
2023/03/28 07:21:32;;;;;;;10.27;2.25;;;6.20;53.90;;;;;;4945938;28;20063;-88
2023/03/28 07:23:59;;;;;;;7.18;2.53;;;6.30;53.80;;;;;;4948460;28;20385;-88
2023/03/28 07:26:27;;;;;;;8.25;2.25;;;6.30;53.80;;;;;;4947070;28;20058;-89
2023/03/28 07:28:55;;;;;;;11.73;2.42;;;6.40;53.70;;;;;;4947359;28;20058;-85
2023/03/28 07:31:23;;;;;;;10.35;2.20;;;6.40;53.70;;;;;;4948513;28;20051;-84
2023/03/28 07:33:52;;;;;;;13.23;2.10;;;6.40;53.60;;;;;;4947551;28;20118;-88
2023/03/28 07:36:21;;;;;;;10.73;1.92;;;6.50;53.50;;;;;;4947258;28;20066;-89
2023/03/28 07:38:50;;;;;;;10.95;1.85;;;6.60;53.80;;;;;;4946847;28;20069;-83
2023/03/28 07:41:18;;;;;;;5.65;1.35;;;6.60;53.40;;;;;;4946043;28;20062;-86
2023/03/28 07:43:45;;;;;;;16.23;1.80;;;6.70;53.50;;;;;;4945984;28;20051;-89
2023/03/28 07:46:15;;;;;;;11.57;2.30;;;6.70;53.40;;;;;;4947582;28;20054;-86
2023/03/28 07:48:45;;;;;;;9.23;1.27;;;6.80;53.30;;;;;;4946306;28;20529;-88
2023/03/28 07:51:14;;;;;;;9.38;1.85;;;6.80;53.20;;;;;;4948104;28;20070;-87
2023/03/28 07:53:42;;;;;;;12.60;1.95;;;6.90;53.20;;;;;;4947786;28;20059;-88
2023/03/28 07:56:10;;;;;;;10.43;1.50;;;6.90;53.10;;;;;;4945497;28;20059;-88
2023/03/28 07:58:38;;;;;;;12.80;1.92;;;7.00;53.10;;;;;;4945108;28;20411;-84
2023/03/28 08:01:07;;;;;;;15.05;1.80;;;7.00;53.00;;;;;;4945291;28;20074;-85
2023/03/28 08:03:35;;;;;;;8.73;1.42;;;7.00;52.90;;;;;;4947297;28;20538;-85
2023/03/28 08:06:04;;;;;;;7.15;1.83;;;7.10;52.80;;;;;;4946479;28;20059;-87
2023/03/28 08:08:33;;;;;;;14.32;1.90;;;7.20;52.80;;;;;;4948108;28;20055;-90
2023/03/28 08:11:01;;;;;;;9.27;1.58;;;7.20;52.50;;;;;;4945414;28;20392;-85
2023/03/28 08:13:28;;;;;;;8.93;1.40;;;7.30;52.50;;;;;;4946089;28;20058;-88
2023/03/28 08:15:56;;;;;;;18.20;4.10;;;7.30;52.70;;;;;;4952520;28;20651;-88
2023/03/28 08:18:25;;;;;;;6.90;2.08;;;7.30;52.70;;;;;;4945790;28;20074;-85
2023/03/28 08:20:59;;;;;;;6.18;1.50;;;7.40;52.60;;;;;;4946888;28;20053;-89
2023/03/28 08:23:27;;;;;;;12.07;1.80;;;7.50;52.50;;;;;;4945532;28;20047;-89
2023/03/28 08:26:03;;;;;;;9.68;1.10;;;7.50;52.30;;;;;;4946730;28;20062;-84
2023/03/28 08:28:33;;;;;;;9.35;2.70;;;7.50;52.00;;;;;;4944602;28;20063;-85
2023/03/28 08:31:01;;;;;;;12.75;2.83;;;7.60;51.90;;;;;;4945143;28;20055;-83
2023/03/28 08:33:31;;;;;;;12.85;1.90;;;7.70;51.70;;;;;;4943720;28;20051;-84
2023/03/28 08:35:59;;;;;;;5.55;1.30;;;7.70;51.30;;;;;;4945534;28;20054;-84
2023/03/28 08:38:28;;;;;;;5.50;1.48;;;7.70;51.00;;;;;;4946726;28;20051;-85
2023/03/28 08:41:07;;;;;;;5.78;1.40;;;7.80;50.90;;;;;;4944145;28;20051;-84
2023/03/28 08:43:53;;;;;;;7.00;1.13;;;7.80;50.90;;;;;;4948312;28;20051;-84
2023/03/28 08:46:24;;;;;;;9.65;1.88;;;7.90;50.60;;;;;;4946867;28;20051;-85
2023/03/28 08:48:54;;;;;;;8.25;1.60;;;7.90;50.70;;;;;;4948214;28;20407;-85
2023/03/28 08:51:26;;;;;;;6.30;1.10;;;8.00;50.50;;;;;;4955155;28;20055;-85
2023/03/28 08:54:06;;;;;;;7.80;1.55;;;8.00;50.20;;;;;;4946765;28;20066;-85
2023/03/28 08:56:42;;;;;;;7.47;1.27;;;8.10;48.50;;;;;;4945360;28;20055;-84
2023/03/28 08:59:15;;;;;;;6.57;0.98;;;8.10;48.70;;;;;;4948478;28;20062;-84
2023/03/28 09:01:43;;;;;;;9.48;1.30;;;8.20;49.10;;;;;;4946590;28;20058;-84
2023/03/28 09:04:23;;;;;;;16.23;1.52;;;8.20;49.20;;;;;;4944613;28;20098;-84
2023/03/28 09:06:57;;;;;;;8.65;1.13;;;8.20;49.10;;;;;;4950295;28;20502;-84
2023/03/28 09:09:44;;;;;;;7.18;1.23;;;8.30;49.20;;;;;;4944244;28;20427;-84
2023/03/28 09:12:30;;;;;;;9.98;1.52;;;8.40;49.00;;;;;;4944373;28;20063;-84
2023/03/28 09:15:12;;;;;;;11.13;1.50;;;8.40;49.00;;;;;;4945506;28;20063;-84
2023/03/28 09:17:49;;;;;;;6.55;1.67;;;8.50;49.10;;;;;;4950406;28;20063;-84
2023/03/28 09:20:22;;;;;;;8.90;1.23;;;8.50;48.90;;;;;;4944764;28;20059;-84
2023/03/28 09:23:06;;;;;;;5.38;1.00;;;8.60;48.00;;;;;;4948144;28;20050;-84
2023/03/28 09:25:41;;;;;;;4.50;1.17;;;8.60;48.10;;;;;;4948638;28;21423;-85
2023/03/28 09:28:23;;;;;;;7.22;1.77;;;8.60;48.50;;;;;;4950061;28;20051;-85
2023/03/28 09:30:52;;;;;;;8.55;1.35;;;8.70;48.60;;;;;;4946051;28;20529;-85
2023/03/28 09:33:26;;;;;;;8.38;1.52;;;8.80;48.50;;;;;;4944408;28;20055;-83
2023/03/28 09:35:57;;;;;;;2.88;1.02;;;8.90;47.80;;;;;;4943794;28;20071;-83
2023/03/28 09:38:31;;;;;;;5.30;0.88;;;9.00;47.30;;;;;;4944791;28;20058;-85
2023/03/28 09:41:02;;;;;;;6.22;0.88;;;9.00;47.10;;;;;;4943368;28;20055;-85
2023/03/28 09:43:36;;;;;;;2.25;0.65;;;9.10;46.60;;;;;;4944192;28;20055;-85
2023/03/28 09:46:06;;;;;;;3.15;0.55;;;9.10;46.10;;;;;;4945955;28;20415;-85
2023/03/28 09:48:35;;;;;;;10.75;1.10;;;9.20;45.80;;;;;;4946053;28;20055;-84
2023/03/28 09:51:04;;;;;;;3.22;0.70;;;9.30;45.70;;;;;;4952487;28;20084;-84
2023/03/28 09:53:34;;;;;;;7.97;1.08;;;9.30;45.90;;;;;;4943889;28;20078;-84
2023/03/28 09:56:05;;;;;;;6.65;1.17;;;9.30;45.70;;;;;;4949305;28;20400;-84
2023/03/28 09:58:52;;;;;;;7.90;1.17;;;9.40;46.10;;;;;;4942862;28;20074;-84
2023/03/28 10:01:31;;;;;;;5.32;1.58;;;9.40;45.90;;;;;;4946203;28;20055;-85
2023/03/28 10:03:59;;;;;;;10.15;1.70;;;9.50;45.90;;;;;;4944269;28;20711;-84
2023/03/28 10:06:29;;;;;;;5.25;1.60;;;9.50;46.10;;;;;;4944924;28;20059;-85
2023/03/28 10:09:15;;;;;;;8.73;1.63;;;9.60;45.40;;;;;;4944919;28;20051;-85
2023/03/28 10:11:53;;;;;;;6.35;1.30;;;9.60;45.00;;;;;;4942411;28;20512;-85
2023/03/28 10:14:33;;;;;;;9.70;1.48;;;9.70;45.20;;;;;;4945680;28;20047;-84
2023/03/28 10:17:05;;;;;;;4.70;1.20;;;9.70;45.30;;;;;;4944735;28;20055;-85
2023/03/28 10:19:35;;;;;;;5.32;1.13;;;9.70;45.30;;;;;;4942252;28;20434;-84
2023/03/28 10:22:07;;;;;;;4.22;1.30;;;9.80;45.40;;;;;;4944111;28;20054;-85
2023/03/28 10:24:36;;;;;;;5.57;1.65;;;9.80;45.40;;;;;;4945016;28;20495;-85
2023/03/28 10:27:08;;;;;;;5.65;1.38;;;9.80;45.50;;;;;;4943176;28;20059;-84
2023/03/28 10:29:38;;;;;;;10.65;2.28;;;9.80;45.70;;;;;;4944496;28;20055;-84
2023/03/28 10:32:06;;;;;;;5.88;2.00;;;9.90;45.40;;;;;;4944176;28;20060;-84
2023/03/28 10:34:34;;;;;;;7.22;1.38;;;9.90;45.40;;;;;;4942424;28;21028;-84
2023/03/28 10:37:01;;;;;;;7.32;1.60;;;10.00;45.30;;;;;;4950899;28;20514;-85
2023/03/28 10:39:31;;;;;;;8.27;1.52;;;10.00;45.10;;;;;;4942948;28;20066;-85
2023/03/28 10:41:59;;;;;;;6.13;1.48;;;10.00;45.20;;;;;;4942690;28;20443;-85
2023/03/28 10:44:29;;;;;;;7.78;2.13;;;10.10;45.10;;;;;;4944961;28;20050;-84
2023/03/28 10:47:01;;;;;;;6.13;1.58;;;10.10;45.10;;;;;;4944987;28;20051;-86
2023/03/28 10:49:37;;;;;;;9.88;1.90;;;10.10;45.30;;;;;;4943577;28;20063;-85
2023/03/28 10:52:17;;;;;;;12.93;1.73;;;10.20;45.40;;;;;;4940352;28;20055;-84
2023/03/28 10:54:55;;;;;;;7.30;1.40;;;10.20;45.30;;;;;;4945166;28;20063;-84
2023/03/28 10:57:30;;;;;;;6.22;1.40;;;10.30;45.20;;;;;;4943744;28;20168;-85
2023/03/28 11:00:06;;;;;;;7.53;1.65;;;10.30;45.40;;;;;;4944545;28;20047;-85
2023/03/28 11:03:10;;;;;;;5.70;1.27;;;10.40;45.10;;;;;;4942741;28;20051;-85
2023/03/28 11:05:46;;;;;;;10.52;2.20;;;10.40;44.80;;;;;;4943669;28;20048;-84
2023/03/28 11:08:32;;;;;;;10.40;2.08;;;10.50;45.10;;;;;;4943004;28;20055;-85
2023/03/28 11:11:07;;;;;;;14.15;1.80;;;10.50;45.20;;;;;;4953950;28;20066;-84
2023/03/28 11:13:42;;;;;;;7.75;1.85;;;10.60;45.20;;;;;;4946832;28;20147;-84
2023/03/28 11:16:18;;;;;;;8.85;1.75;;;10.60;45.10;;;;;;4947939;28;20474;-85
2023/03/28 11:19:06;;;;;;;4.93;2.47;;;10.60;45.10;;;;;;4946214;28;20418;-84
2023/03/28 11:21:43;;;;;;;10.82;3.63;;;10.70;45.00;;;;;;4946350;28;20055;-85
2023/03/28 11:24:23;;;;;;;8.35;2.90;;;10.80;45.10;;;;;;4946962;28;20051;-84
2023/03/28 11:26:58;;;;;;;10.73;1.63;;;10.80;44.90;;;;;;4946819;28;20499;-84
2023/03/28 11:29:38;;;;;;;9.27;1.65;;;10.80;44.80;;;;;;4953329;28;20047;-85
2023/03/28 11:32:12;;;;;;;10.38;2.13;;;10.90;44.70;;;;;;4948096;28;20051;-84
2023/03/28 11:34:43;;;;;;;;;;;11.00;44.90;;;;;;4947038;28;20479;-84
2023/03/28 11:37:16;;;;;;;6.90;1.52;;;11.00;44.90;;;;;;4947304;28;19926;-84
2023/03/28 11:39:49;;;;;;;7.67;1.63;;;11.00;44.80;;;;;;4947372;28;20165;-84
2023/03/28 11:42:22;;;;;;;11.53;2.07;;;11.10;44.50;;;;;;4945394;28;20419;-84
2023/03/28 11:44:59;;;;;;;7.55;1.92;;;11.10;44.30;;;;;;4947780;28;20062;-84
2023/03/28 11:47:31;;;;;;;7.38;2.05;;;11.10;44.30;;;;;;4947296;28;20051;-86
2023/03/28 11:50:04;;;;;;;7.68;2.00;;;11.20;44.30;;;;;;4947049;28;20059;-85
2023/03/28 11:52:36;;;;;;;7.35;1.42;;;11.20;43.90;;;;;;4945809;28;20435;-85
2023/03/28 11:55:13;;;;;;;7.30;1.58;;;11.30;44.30;;;;;;4951655;28;20074;-84
2023/03/28 11:57:50;;;;;;;11.55;1.58;;;11.30;44.10;;;;;;4946724;28;20082;-84
2023/03/28 12:00:24;;;;;;;9.55;2.30;;;11.40;44.20;;;;;;4946583;28;20055;-85
2023/03/28 12:02:56;;;;;;;7.80;1.42;;;11.40;43.60;;;;;;4947640;28;20085;-86
2023/03/28 12:05:31;;;;;;;5.63;1.58;;;11.50;43.10;;;;;;4947196;28;20055;-84
2023/03/28 12:08:06;;;;;;;5.93;1.48;;;11.50;43.20;;;;;;4946774;28;20059;-85
2023/03/28 12:10:35;;;;;;;6.20;1.55;;;11.50;43.30;;;;;;4945401;28;20411;-86
2023/03/28 12:13:10;;;;;;;5.85;1.67;;;11.60;43.30;;;;;;4944037;28;20059;-84
2023/03/28 12:15:45;;;;;;;4.55;1.30;;;11.60;42.90;;;;;;4946334;28;20051;-85
2023/03/28 12:18:14;;;;;;;;;;;11.60;42.60;;;;;;4947296;28;20054;-85
2023/03/28 12:20:50;;;;;;;6.90;1.80;;;11.70;42.70;;;;;;4946560;28;19933;-84
2023/03/28 12:23:23;;;;;;;5.25;1.20;;;11.70;42.20;;;;;;4945816;28;20059;-84
2023/03/28 12:26:02;;;;;;;12.63;1.25;;;11.70;42.10;;;;;;4945182;28;20063;-85
2023/03/28 12:28:37;;;;;;;3.60;1.17;;;11.70;41.60;;;;;;4945282;28;20055;-86
2023/03/28 12:31:14;;;;;;;5.65;1.52;;;11.80;42.00;;;;;;4945051;28;20415;-86
2023/03/28 12:33:55;;;;;;;6.53;1.85;;;11.80;42.10;;;;;;4944970;28;20065;-84
2023/03/28 12:36:32;;;;;;;6.13;1.70;;;11.80;42.40;;;;;;4947446;28;20585;-84
2023/03/28 12:39:04;;;;;;;7.50;1.13;;;11.90;42.20;;;;;;4944923;28;20165;-86
2023/03/28 12:41:36;;;;;;;5.38;1.15;;;11.90;41.90;;;;;;4944758;28;20067;-85
2023/03/28 12:44:07;;;;;;;4.78;1.30;;;11.90;41.50;;;;;;4944605;28;20059;-85
2023/03/28 12:46:44;;;;;;;4.18;1.52;;;11.90;41.00;;;;;;4944723;28;20051;-85
2023/03/28 12:49:17;;;;;;;6.72;1.27;;;11.90;40.50;;;;;;4945954;28;20420;-84
2023/03/28 12:51:50;;;;;;;6.20;1.63;;;11.80;40.70;;;;;;4945132;28;20082;-84
2023/03/28 12:54:27;;;;;;;5.00;1.48;;;11.90;40.70;;;;;;4945514;28;20082;-84
2023/03/28 12:57:03;;;;;;;3.67;1.30;;;11.90;40.80;;;;;;4942820;28;20055;-84
2023/03/28 12:59:47;;;;;;;6.25;1.23;;;11.90;41.00;;;;;;4947407;28;20078;-85
2023/03/28 13:02:19;;;;;;;3.80;1.25;;;11.90;40.60;;;;;;4944942;28;20423;-84
2023/03/28 13:04:51;;;;;;;5.22;1.02;;;11.90;40.80;;;;;;4945227;28;20070;-85
2023/03/28 13:07:27;;;;;;;6.45;1.50;;;11.90;40.40;;;;;;4944173;28;20051;-84
2023/03/28 13:10:11;;;;;;;4.55;1.20;;;11.90;40.30;;;;;;4946348;28;20659;-86
2023/03/28 13:12:50;;;;;;;5.88;1.60;;;11.90;40.10;;;;;;4944952;28;20055;-85
2023/03/28 13:15:32;;;;;;;6.47;1.58;;;11.90;40.40;;;;;;4945558;28;20059;-85
2023/03/28 13:18:26;;;;;;;5.45;1.40;;;12.00;40.70;;;;;;4944627;28;20502;-85
2023/03/28 13:20:54;;;;;;;6.07;1.15;;;12.00;40.10;;;;;;4944059;28;20496;-85
2023/03/28 13:23:29;;;;;;;7.68;1.40;;;12.00;40.40;;;;;;4945183;28;20544;-85
2023/03/28 13:25:57;;;;;;;7.05;1.58;;;12.00;40.00;;;;;;4945158;28;20059;-85
2023/03/28 13:28:44;;;;;;;5.03;1.52;;;12.10;40.20;;;;;;4944535;28;20051;-85
2023/03/28 13:31:20;;;;;;;3.95;1.00;;;12.10;40.00;;;;;;4951450;28;20058;-85
2023/03/28 13:33:49;;;;;;;6.35;1.25;;;12.10;40.30;;;;;;4944449;28;20063;-85
2023/03/28 13:36:22;;;;;;;3.33;1.48;;;12.10;40.40;;;;;;4945481;28;20063;-85
2023/03/28 13:38:59;;;;;;;8.68;1.50;;;12.20;40.20;;;;;;4944774;28;20415;-85
2023/03/28 13:41:35;;;;;;;5.05;1.40;;;12.20;40.20;;;;;;4944011;28;20074;-85
2023/03/28 13:44:06;;;;;;;4.60;1.10;;;12.20;40.10;;;;;;4945173;28;20063;-86
2023/03/28 13:46:38;;;;;;;5.82;1.38;;;12.30;40.20;;;;;;4945052;28;20059;-86
2023/03/28 13:49:10;;;;;;;5.85;1.80;;;12.30;40.00;;;;;;4944215;28;20063;-85
2023/03/28 13:51:43;;;;;;;7.72;1.60;;;12.30;39.80;;;;;;4944732;28;20047;-85
2023/03/28 13:54:12;;;;;;;3.20;1.00;;;12.40;39.70;;;;;;4944753;28;20047;-86
2023/03/28 13:56:43;;;;;;;7.63;1.63;;;12.40;39.40;;;;;;4946559;28;20051;-86
2023/03/28 13:59:15;;;;;;;5.63;1.60;;;12.40;39.40;;;;;;4943668;28;20054;-85
2023/03/28 14:01:47;;;;;;;6.10;1.60;;;12.50;39.20;;;;;;4944788;28;20396;-85
2023/03/28 14:04:20;;;;;;;4.13;1.30;;;12.50;39.00;;;;;;4945186;28;20407;-86
2023/03/28 14:06:48;;;;;;;8.75;1.15;;;12.50;38.90;;;;;;4944853;28;20067;-85
2023/03/28 14:09:20;;;;;;;4.68;1.33;;;12.60;39.20;;;;;;4944311;28;20415;-85
2023/03/28 14:11:48;;;;;;;6.75;1.55;;;12.60;39.20;;;;;;4943105;28;20117;-86
2023/03/28 14:14:23;;;;;;;5.07;1.38;;;12.60;39.50;;;;;;4944710;28;20419;-85
2023/03/28 14:16:52;;;;;;;6.70;1.60;;;12.70;39.50;;;;;;4943934;28;20055;-85
2023/03/28 14:19:22;;;;;;;4.75;1.40;;;12.80;39.50;;;;;;4943575;28;20460;-84
2023/03/28 14:21:49;;;;;;;6.75;1.38;;;12.80;38.90;;;;;;4944315;28;20520;-85
2023/03/28 14:24:22;;;;;;;7.00;1.70;;;12.80;39.60;;;;;;4944269;28;20075;-83
2023/03/28 14:26:50;;;;;;;12.23;2.95;;;12.90;39.00;;;;;;4942451;28;20051;-86
2023/03/28 14:29:19;;;;;;;6.10;1.98;;;12.90;38.80;;;;;;4943595;28;20062;-86
2023/03/28 14:31:48;;;;;;;5.88;1.77;;;12.90;38.80;;;;;;4949683;28;20048;-85
2023/03/28 14:34:18;;;;;;;6.00;1.63;;;12.90;39.10;;;;;;4944578;28;20055;-86
2023/03/28 14:36:57;;;;;;;3.22;1.30;;;12.90;38.50;;;;;;4944829;28;20059;-85
2023/03/28 14:39:28;;;;;;;2.92;1.75;;;12.90;38.50;;;;;;4944184;28;20051;-85
2023/03/28 14:41:59;;;;;;;3.65;1.60;;;13.00;38.70;;;;;;4942820;28;20066;-86
2023/03/28 14:44:28;;;;;;;6.03;1.80;;;13.00;38.80;;;;;;4946487;28;20062;-86
2023/03/28 14:46:57;;;;;;;8.80;1.80;;;13.00;39.10;;;;;;4947505;28;20078;-86
2023/03/28 14:49:26;;;;;;;5.35;1.75;;;13.00;39.00;;;;;;4946783;28;20059;-85
2023/03/28 14:51:56;;;;;;;6.25;1.60;;;13.00;39.00;;;;;;4947745;28;20059;-85
2023/03/28 14:54:30;;;;;;;3.88;1.63;;;13.00;38.80;;;;;;4947906;28;20062;-86
2023/03/28 14:56:58;;;;;;;3.92;1.40;;;13.00;38.40;;;;;;4945563;28;20062;-86
2023/03/28 14:59:33;;;;;;;6.95;1.50;;;13.00;38.50;;;;;;4948760;28;20063;-85
2023/03/28 15:02:02;;;;;;;4.38;1.67;;;13.00;38.10;;;;;;4948411;28;20149;-85
2023/03/28 15:04:30;;;;;;;3.85;1.48;;;13.00;38.00;;;;;;4948301;28;20063;-87
2023/03/28 15:06:58;;;;;;;3.78;1.23;;;13.00;38.00;;;;;;4947059;28;20066;-87
2023/03/28 15:09:31;;;;;;;6.53;1.73;;;13.00;38.10;;;;;;4947773;28;20059;-87
2023/03/28 15:12:04;;;;;;;5.28;1.55;;;13.00;38.20;;;;;;4947111;28;20063;-88
2023/03/28 15:14:38;;;;;;;4.78;1.23;;;13.00;37.90;;;;;;4947510;28;20495;-87
2023/03/28 15:17:06;;;;;;;7.68;2.20;;;13.00;37.70;;;;;;4946371;28;20055;-88
2023/03/28 15:19:36;;;;;;;5.68;1.35;;;13.00;37.70;;;;;;4947253;28;20062;-88
2023/03/28 15:22:09;;;;;;;5.78;1.58;;;13.00;37.50;;;;;;4947277;28;20460;-86
2023/03/28 15:24:38;;;;;;;9.05;1.45;;;13.00;37.50;;;;;;4947102;28;20062;-86
2023/03/28 15:27:08;;;;;;;5.18;1.30;;;12.90;37.50;;;;;;4943582;28;20047;-87
2023/03/28 15:29:38;;;;;;;2.92;1.08;;;13.00;37.80;;;;;;4946862;28;20065;-88
2023/03/28 15:32:07;;;;;;;3.25;1.15;;;13.00;38.00;;;;;;4948603;28;20055;-89
2023/03/28 15:34:45;;;;;;;5.85;1.67;;;13.00;38.30;;;;;;4948057;28;20411;-89
2023/03/28 15:37:16;;;;;;;13.57;1.80;;;12.90;38.20;;;;;;4947826;28;20062;-88
2023/03/28 15:39:48;;;;;;;6.95;1.05;;;13.00;38.00;;;;;;4945874;28;20062;-87
2023/03/28 15:42:34;;;;;;;3.92;1.40;;;12.90;38.00;;;;;;4944696;28;20051;-86
2023/03/28 15:45:24;;;;;;;3.17;1.00;;;13.00;37.80;;;;;;4948645;28;20055;-88
2023/03/28 15:47:54;;;;;;;7.63;1.40;;;12.90;37.70;;;;;;4938384;28;20062;-88
2023/03/28 15:50:27;;;;;;;3.00;1.10;;;12.90;37.70;;;;;;4951639;28;20058;-87
2023/03/28 15:53:03;;;;;;;5.55;1.23;;;12.90;37.80;;;;;;4946439;28;20051;-89
2023/03/28 15:55:34;;;;;;;5.15;1.35;;;12.90;37.80;;;;;;4945900;28;20069;-88
2023/03/28 15:58:04;;;;;;;6.05;1.95;;;12.90;37.40;;;;;;4946485;28;20047;-88
2023/03/28 16:00:46;;;;;;;6.93;1.40;;;12.90;37.90;;;;;;4944891;28;20058;-85
2023/03/28 16:03:32;;;;;;;3.63;0.98;;;12.90;37.40;;;;;;4949604;28;20083;-87
2023/03/28 16:06:03;;;;;;;6.57;1.30;;;12.90;37.10;;;;;;4944895;28;20384;-87
2023/03/28 16:08:32;;;;;;;4.72;1.17;;;12.90;37.10;;;;;;4945919;28;20055;-85
2023/03/28 16:11:01;;;;;;;5.45;1.52;;;12.90;37.20;;;;;;4944340;28;20066;-86
2023/03/28 16:13:29;;;;;;;5.57;1.50;;;12.90;37.50;;;;;;4947254;28;20059;-88
2023/03/28 16:15:56;;;;;;;3.72;1.08;;;12.90;37.50;;;;;;4946041;28;20059;-87
2023/03/28 16:18:24;;;;;;;3.08;0.90;;;12.90;37.40;;;;;;4946131;28;20506;-87
2023/03/28 16:20:54;;;;;;;4.28;1.20;;;12.80;37.60;;;;;;4944639;28;20055;-86
2023/03/28 16:23:21;;;;;;;5.85;1.10;;;12.90;37.90;;;;;;4944660;28;20051;-85
2023/03/28 16:25:49;;;;;;;5.45;1.27;;;12.80;37.90;;;;;;4944304;28;20053;-85
2023/03/28 16:28:18;;;;;;;7.00;1.17;;;12.80;37.90;;;;;;4944831;28;20085;-86
2023/03/28 16:30:46;;;;;;;2.63;0.98;;;12.90;37.80;;;;;;4944438;28;20059;-86
2023/03/28 16:33:13;;;;;;;4.25;1.10;;;12.80;38.10;;;;;;4954967;28;20062;-86